createdAt,value
2022-09-27T00:02:09.422Z,96925.34
2022-09-27T00:04:37.649Z,96917.94
2022-09-27T00:07:06.110Z,96914.44
2022-09-27T00:09:34.713Z,96912.47
2022-09-27T00:12:03.181Z,96916.78
2022-09-27T00:14:31.196Z,96912.41
2022-09-27T00:17:00.583Z,96914.88
2022-09-27T00:19:28.758Z,96909.78
2022-09-27T00:21:57.942Z,96904.34
2022-09-27T00:24:26.074Z,96910.13
2022-09-27T00:26:54.314Z,96907.84
2022-09-27T00:29:22.488Z,96896.00
2022-09-27T00:31:50.835Z,96904.47
2022-09-27T00:34:22.723Z,96904.16
2022-09-27T00:36:51.865Z,96903.31
2022-09-27T00:39:20.078Z,96900.03
2022-09-27T00:41:48.490Z,96898.88
2022-09-27T00:44:59.295Z,96894.19
2022-09-27T00:47:31.826Z,96889.44
2022-09-27T00:50:06.642Z,96897.56
2022-09-27T00:52:43.263Z,96895.41
2022-09-27T00:55:16.359Z,96898.09
2022-09-27T00:57:46.221Z,96903.31
2022-09-27T01:00:16.329Z,96890.47
2022-09-27T01:02:48.729Z,96883.09
2022-09-27T01:05:23.159Z,96887.28
2022-09-27T01:07:51.408Z,96891.75
2022-09-27T01:10:22.862Z,96889.31
2022-09-27T01:13:03.406Z,96891.94
2022-09-27T01:15:40.177Z,96890.94
2022-09-27T01:18:25.970Z,96888.66
2022-09-27T01:21:20.500Z,96883.31
2022-09-27T01:24:16.763Z,96886.47
2022-09-27T01:27:12.205Z,96892.22
2022-09-27T01:29:56.684Z,96886.16
2022-09-27T01:32:36.704Z,96886.66
2022-09-27T01:35:15.562Z,96894.25
2022-09-27T01:37:56.792Z,96881.84
2022-09-27T01:40:31.388Z,96871.09
2022-09-27T01:43:28.548Z,96868.78
2022-09-27T01:46:03.098Z,96869.44
2022-09-27T01:48:56.436Z,96867.63
2022-09-27T01:51:29.347Z,96877.38
2022-09-27T01:54:03.660Z,96868.28
2022-09-27T01:56:39.309Z,96883.16
2022-09-27T01:59:15.646Z,96881.69
2022-09-27T02:01:53.639Z,96878.72
2022-09-27T02:04:29.893Z,96884.34
2022-09-27T02:07:19.402Z,96888.97
2022-09-27T02:09:54.300Z,96886.34
2022-09-27T02:12:31.129Z,96891.75
2022-09-27T02:15:05.208Z,96887.66
2022-09-27T02:17:44.270Z,96881.88
2022-09-27T02:20:19.682Z,96894.84
2022-09-27T02:22:58.502Z,96907.31
2022-09-27T02:25:31.818Z,96913.75
2022-09-27T02:28:05.017Z,96914.59
2022-09-27T02:30:35.797Z,96914.38
2022-09-27T02:33:17.178Z,96917.03
2022-09-27T02:35:47.190Z,96926.50
2022-09-27T02:38:15.474Z,96917.03
2022-09-27T02:40:47.730Z,96918.75
2022-09-27T02:43:18.900Z,96911.44
2022-09-27T02:46:02.509Z,96914.44
2022-09-27T02:48:38.722Z,96912.47
2022-09-27T02:51:28.838Z,96911.78
2022-09-27T02:54:12.637Z,96914.09
2022-09-27T02:57:13.063Z,96924.28
2022-09-27T03:00:09.670Z,96924.66
2022-09-27T03:02:58.892Z,96933.22
2022-09-27T03:05:34.963Z,96940.69
2022-09-27T03:08:05.751Z,96941.13
2022-09-27T03:10:34.396Z,96936.22
2022-09-27T03:13:04.454Z,96936.84
2022-09-27T03:15:33.192Z,96945.16
2022-09-27T03:18:01.310Z,96942.25
2022-09-27T03:20:47.848Z,96957.69
2022-09-27T03:23:19.710Z,96955.06
2022-09-27T03:25:47.981Z,96958.69
2022-09-27T03:28:16.249Z,96958.91
2022-09-27T03:30:46.873Z,96955.41
2022-09-27T03:33:27.814Z,96961.38
2022-09-27T03:36:00.012Z,96958.75
2022-09-27T03:38:29.561Z,96965.00
2022-09-27T03:40:58.435Z,96965.28
2022-09-27T03:43:26.537Z,96968.28
2022-09-27T03:45:58.088Z,96970.34
2022-09-27T03:48:28.316Z,96969.47
2022-09-27T03:50:56.489Z,96969.94
2022-09-27T03:53:24.732Z,96966.50
2022-09-27T03:55:54.648Z,96965.72
2022-09-27T03:58:22.525Z,96966.59
2022-09-27T04:00:50.474Z,96974.41
2022-09-27T04:03:19.871Z,96968.28
2022-09-27T04:06:06.462Z,96980.78
2022-09-27T04:08:39.541Z,96972.13
2022-09-27T04:11:09.432Z,96972.75
2022-09-27T04:13:38.740Z,96981.88
2022-09-27T04:16:07.794Z,96983.03
2022-09-27T04:19:10.719Z,96977.19
2022-09-27T04:21:41.687Z,96983.84
2022-09-27T04:24:11.924Z,96975.31
2022-09-27T04:26:49.740Z,96983.75
2022-09-27T04:29:23.740Z,96986.22
2022-09-27T04:31:54.006Z,96984.94
2022-09-27T04:35:17.091Z,96978.22
2022-09-27T04:37:46.586Z,96980.25
2022-09-27T04:40:16.756Z,96984.03
2022-09-27T04:42:46.050Z,96981.31
2022-09-27T04:45:14.228Z,96997.03
2022-09-27T04:47:44.284Z,96993.28
2022-09-27T04:50:12.918Z,97001.69
2022-09-27T04:52:56.446Z,97010.66
2022-09-27T04:55:24.727Z,97010.22
2022-09-27T04:57:54.408Z,97012.19
2022-09-27T05:00:22.902Z,97008.94
2022-09-27T05:02:57.650Z,97013.13
2022-09-27T05:05:38.488Z,97019.13
2022-09-27T05:08:06.798Z,97019.66
2022-09-27T05:10:55.462Z,97027.41
2022-09-27T05:13:24.739Z,97028.28
2022-09-27T05:15:52.869Z,97031.63
2022-09-27T05:18:46.742Z,97040.50
2022-09-27T05:21:33.203Z,97045.47
2022-09-27T05:24:01.184Z,97059.66
2022-09-27T05:26:31.421Z,97050.88
2022-09-27T05:29:00.845Z,97056.94
2022-09-27T05:31:29.317Z,97056.25
2022-09-27T05:33:57.334Z,97068.53
2022-09-27T05:36:34.714Z,97075.59
2022-09-27T05:39:02.598Z,97084.34
2022-09-27T05:41:32.782Z,97087.91
2022-09-27T05:44:02.599Z,97092.38
2022-09-27T05:46:30.520Z,97093.56
2022-09-27T05:48:58.770Z,97093.63
2022-09-27T05:51:26.707Z,97083.28
2022-09-27T05:53:54.885Z,97091.50
2022-09-27T05:56:28.420Z,97097.13
2022-09-27T05:59:29.968Z,97110.78
2022-09-27T06:02:16.739Z,97108.75
2022-09-27T06:04:56.930Z,97105.34
2022-09-27T06:07:43.408Z,97111.63
2022-09-27T06:10:16.842Z,97116.88
2022-09-27T06:12:44.861Z,97127.59
2022-09-27T06:15:36.109Z,97127.69
2022-09-27T06:18:06.257Z,97135.44
2022-09-27T06:20:35.969Z,97138.28
2022-09-27T06:23:08.079Z,97142.44
2022-09-27T06:25:39.120Z,97135.53
2022-09-27T06:28:20.550Z,97138.44
2022-09-27T06:30:52.446Z,97134.78
2022-09-27T06:33:29.111Z,97129.66
2022-09-27T06:36:02.655Z,97140.69
2022-09-27T06:38:31.833Z,97144.56
2022-09-27T06:41:14.553Z,97143.19
2022-09-27T06:43:54.327Z,97151.75
2022-09-27T06:46:42.725Z,97150.25
2022-09-27T06:49:29.341Z,97153.38
2022-09-27T06:51:58.524Z,97156.97
2022-09-27T06:54:26.481Z,97164.25
2022-09-27T06:56:56.954Z,97155.66
2022-09-27T06:59:44.345Z,97172.94
2022-09-27T07:02:32.131Z,97173.78
2022-09-27T07:05:21.302Z,97180.75
2022-09-27T07:08:07.875Z,97179.72
2022-09-27T07:10:37.748Z,97184.97
2022-09-27T07:13:07.435Z,97187.97
2022-09-27T07:15:37.107Z,97184.31
2022-09-27T07:18:09.615Z,97182.44
2022-09-27T07:20:38.339Z,97187.00
2022-09-27T07:23:08.501Z,97195.44
2022-09-27T07:25:36.736Z,97193.84
2022-09-27T07:28:07.049Z,97195.06
2022-09-27T07:30:37.901Z,97203.25
2022-09-27T07:33:09.004Z,97203.16
2022-09-27T07:35:40.240Z,97208.97
2022-09-27T07:38:10.259Z,97215.16
2022-09-27T07:40:39.151Z,97220.09
2022-09-27T07:43:08.166Z,97227.47
2022-09-27T07:45:37.538Z,97227.72
2022-09-27T07:48:24.767Z,97233.44
2022-09-27T07:51:21.610Z,97227.66
2022-09-27T07:53:53.338Z,97226.91
2022-09-27T07:56:41.543Z,97227.91
2022-09-27T07:59:12.808Z,97231.75
2022-09-27T08:01:40.884Z,97220.94
2022-09-27T08:04:10.436Z,97229.09
2022-09-27T08:06:38.384Z,97232.44
2022-09-27T08:09:07.315Z,97226.97
2022-09-27T08:11:35.523Z,97229.16
2022-09-27T08:14:05.008Z,97231.59
2022-09-27T08:16:35.485Z,97249.88
2022-09-27T08:19:18.265Z,97247.00
2022-09-27T08:22:04.808Z,97256.50
2022-09-27T08:24:47.187Z,97261.69
2022-09-27T08:27:33.821Z,97257.72
2022-09-27T08:30:05.082Z,97265.00
2022-09-27T08:32:33.832Z,97267.13
2022-09-27T08:35:04.750Z,97273.78
2022-09-27T08:37:35.274Z,97271.03
2022-09-27T08:40:03.993Z,97267.50
2022-09-27T08:42:43.109Z,97272.16
2022-09-27T08:45:18.614Z,97278.44
2022-09-27T08:47:51.315Z,97286.63
2022-09-27T08:50:29.175Z,97284.28
2022-09-27T08:53:03.802Z,97284.03
2022-09-27T08:55:37.290Z,97278.44
2022-09-27T08:58:16.330Z,97281.63
2022-09-27T09:00:44.498Z,97284.59
2022-09-27T09:03:19.561Z,97285.69
2022-09-27T09:06:01.754Z,97294.03
2022-09-27T09:08:42.951Z,97283.66
2022-09-27T09:11:45.321Z,97291.00
2022-09-27T09:14:27.332Z,97287.66
2022-09-27T09:17:05.117Z,97291.97
2022-09-27T09:19:55.078Z,97291.72
2022-09-27T09:22:45.939Z,97291.28
2022-09-27T09:25:24.683Z,97286.69
2022-09-27T09:28:05.478Z,97286.63
2022-09-27T09:30:43.373Z,97290.94
2022-09-27T09:33:27.559Z,97288.53
2022-09-27T09:36:01.194Z,97284.59
2022-09-27T09:38:40.571Z,97286.75
2022-09-27T09:41:16.275Z,97283.59
2022-09-27T09:43:48.203Z,97288.59
2022-09-27T09:46:22.937Z,97288.63
2022-09-27T09:48:58.636Z,97275.38
2022-09-27T09:51:35.099Z,97264.09
2022-09-27T09:54:10.046Z,97279.66
2022-09-27T09:56:45.759Z,97278.69
2022-09-27T09:59:19.060Z,97260.38
2022-09-27T10:01:57.403Z,97262.03
2022-09-27T10:04:27.977Z,97257.81
2022-09-27T10:07:00.578Z,97251.69
2022-09-27T10:09:34.713Z,97248.44
2022-09-27T10:12:23.254Z,97253.41
2022-09-27T10:14:55.307Z,97250.81
2022-09-27T10:17:28.366Z,97255.69
2022-09-27T10:19:59.875Z,97249.16
2022-09-27T10:22:33.873Z,97254.31
2022-09-27T10:25:10.834Z,97255.44
2022-09-27T10:27:56.686Z,97246.91
2022-09-27T10:30:32.570Z,97257.16
2022-09-27T10:33:07.784Z,97257.69
2022-09-27T10:35:45.132Z,97251.84
2022-09-27T10:38:26.455Z,97241.84
2022-09-27T10:41:18.554Z,97255.41
2022-09-27T10:43:46.650Z,97255.03
2022-09-27T10:46:28.585Z,97253.97
2022-09-27T10:49:19.052Z,97260.91
2022-09-27T10:51:52.028Z,97248.50
2022-09-27T10:54:22.423Z,97252.25
2022-09-27T10:57:05.366Z,97254.47
2022-09-27T10:59:37.623Z,97240.38
2022-09-27T11:02:08.152Z,97234.94
2022-09-27T11:04:40.359Z,97231.25
2022-09-27T11:07:15.009Z,97225.84
2022-09-27T11:09:52.742Z,97225.66
2022-09-27T11:12:25.201Z,97215.13
2022-09-27T11:14:57.968Z,97215.50
2022-09-27T11:17:36.603Z,97220.69
2022-09-27T11:20:14.947Z,97211.69
2022-09-27T11:23:23.332Z,97220.22
2022-09-27T11:26:05.965Z,97212.19
2022-09-27T11:28:45.774Z,97204.22
2022-09-27T11:31:35.520Z,97204.44
2022-09-27T11:34:29.848Z,97200.34
2022-09-27T11:37:07.770Z,97197.78
2022-09-27T11:39:51.165Z,97192.13
2022-09-27T11:42:39.960Z,97198.78
2022-09-27T11:45:45.404Z,97197.13
2022-09-27T11:48:31.083Z,97211.44
2022-09-27T11:51:21.632Z,97223.19
2022-09-27T11:54:06.778Z,97245.09
2022-09-27T11:56:46.489Z,97269.41
2022-09-27T11:59:42.948Z,97287.38
2022-09-27T12:02:28.975Z,97294.13
2022-09-27T12:05:15.534Z,97284.47
2022-09-27T12:08:08.169Z,97280.06
2022-09-27T12:10:39.146Z,97279.84
2022-09-27T12:13:12.961Z,97270.91
2022-09-27T12:15:44.972Z,97275.88
2022-09-27T12:18:25.806Z,97269.63
2022-09-27T12:20:55.045Z,97268.34
2022-09-27T12:23:27.278Z,97271.22
2022-09-27T12:26:07.375Z,97271.16
2022-09-27T12:28:41.976Z,97271.19
2022-09-27T12:31:30.133Z,97271.84
2022-09-27T12:34:19.645Z,97252.47
2022-09-27T12:36:54.332Z,97270.38
2022-09-27T12:39:26.835Z,97257.44
2022-09-27T12:42:15.898Z,97262.44
2022-09-27T12:44:50.718Z,97260.34
2022-09-27T12:47:40.059Z,97257.13
2022-09-27T12:50:29.059Z,97255.13
2022-09-27T12:53:04.354Z,97240.06
2022-09-27T12:55:48.481Z,97242.09
2022-09-27T12:58:34.533Z,97234.16
2022-09-27T13:01:15.079Z,97227.38
2022-09-27T13:04:01.434Z,97224.69
2022-09-27T13:06:43.558Z,97225.66
2022-09-27T13:09:43.952Z,97228.84
2022-09-27T13:12:15.067Z,97226.97
2022-09-27T13:14:50.231Z,97231.31
2022-09-27T13:17:50.023Z,97241.06
2022-09-27T13:20:48.315Z,97242.31
2022-09-27T13:24:00.555Z,97237.22
2022-09-27T13:26:47.013Z,97243.56
2022-09-27T13:29:27.703Z,97252.59
2022-09-27T13:32:23.957Z,97239.09
2022-09-27T13:35:19.854Z,97225.13
2022-09-27T13:37:56.884Z,97223.97
2022-09-27T13:40:37.809Z,97225.41
2022-09-27T13:43:48.788Z,97215.13
2022-09-27T13:46:36.203Z,97212.41
2022-09-27T13:49:15.846Z,97206.47
2022-09-27T13:52:06.799Z,97211.19
2022-09-27T13:54:42.098Z,97214.03
2022-09-27T13:57:42.543Z,97217.50
2022-09-27T14:00:18.349Z,97207.66
2022-09-27T14:03:02.631Z,97199.50
2022-09-27T14:05:37.001Z,97219.38
2022-09-27T14:08:08.338Z,97219.44
2022-09-27T14:10:37.591Z,97224.25
2022-09-27T14:13:08.214Z,97222.63
2022-09-27T14:15:48.311Z,97222.38
2022-09-27T14:18:16.785Z,97226.16
2022-09-27T14:20:47.830Z,97223.31
2022-09-27T14:23:34.290Z,97230.25
2022-09-27T14:26:04.317Z,97215.47
2022-09-27T14:28:42.536Z,97221.25
2022-09-27T14:31:18.726Z,97224.28
2022-09-27T14:34:16.067Z,97212.47
2022-09-27T14:37:07.635Z,97190.13
2022-09-27T14:39:56.263Z,97204.47
2022-09-27T14:42:36.330Z,97211.00
2022-09-27T14:45:25.710Z,97212.13
2022-09-27T14:47:53.881Z,97200.00
2022-09-27T14:50:25.750Z,97199.44
2022-09-27T14:52:56.168Z,97190.19
2022-09-27T14:55:28.271Z,97203.41
2022-09-27T14:58:01.393Z,97200.47
2022-09-27T15:00:33.911Z,97204.75
2022-09-27T15:03:08.923Z,97202.09
2022-09-27T15:05:37.119Z,97206.09
2022-09-27T15:08:07.095Z,97192.13
2022-09-27T15:10:37.667Z,97206.34
2022-09-27T15:13:08.335Z,97212.38
2022-09-27T15:15:39.919Z,97214.03
2022-09-27T15:18:32.408Z,97224.50
2022-09-27T15:21:01.268Z,97225.44
2022-09-27T15:23:31.335Z,97204.94
2022-09-27T15:26:07.028Z,97211.09
2022-09-27T15:28:38.311Z,97221.38
2022-09-27T15:31:08.629Z,97226.28
2022-09-27T15:33:37.090Z,97231.66
2022-09-27T15:36:07.472Z,97222.84
2022-09-27T15:38:37.931Z,97219.06
2022-09-27T15:41:09.464Z,97220.34
2022-09-27T15:43:45.780Z,97214.34
2022-09-27T15:46:30.331Z,97218.75
2022-09-27T15:49:27.541Z,97225.31
2022-09-27T15:51:57.252Z,97217.03
2022-09-27T15:54:27.118Z,97223.84
2022-09-27T15:56:58.299Z,97227.66
2022-09-27T15:59:28.828Z,97218.34
2022-09-27T16:02:04.264Z,97222.34
2022-09-27T16:04:35.418Z,97225.63
2022-09-27T16:07:05.377Z,97223.00
2022-09-27T16:09:33.206Z,97222.31
2022-09-27T16:12:01.351Z,97223.69
2022-09-27T16:14:29.190Z,97234.97
2022-09-27T16:16:59.978Z,97239.28
2022-09-27T16:19:27.743Z,97237.00
2022-09-27T16:21:55.589Z,97245.63
2022-09-27T16:24:25.127Z,97238.53
2022-09-27T16:26:52.870Z,97248.47
2022-09-27T16:29:20.619Z,97243.56
2022-09-27T16:31:48.535Z,97246.69
2022-09-27T16:34:18.385Z,97251.69
2022-09-27T16:36:46.220Z,97249.50
2022-09-27T16:39:14.948Z,97249.28
2022-09-27T16:41:43.582Z,97250.59
2022-09-27T16:44:13.501Z,97239.25
2022-09-27T16:46:42.183Z,97251.50
2022-09-27T16:49:30.395Z,97251.16
2022-09-27T16:52:01.608Z,97242.47
2022-09-27T16:54:30.533Z,97254.03
2022-09-27T16:56:59.698Z,97245.94
2022-09-27T16:59:29.643Z,97242.81
2022-09-27T17:01:58.152Z,97243.53
2022-09-27T17:04:27.455Z,97255.56
2022-09-27T17:06:55.287Z,97265.28
2022-09-27T17:09:24.928Z,97254.41
2022-09-27T17:11:53.126Z,97263.38
2022-09-27T17:14:21.085Z,97271.38
2022-09-27T17:16:50.452Z,97251.75
2022-09-27T17:19:18.983Z,97257.81
2022-09-27T17:21:47.608Z,97266.88
2022-09-27T17:24:15.453Z,97266.72
2022-09-27T17:26:45.126Z,97261.78
2022-09-27T17:29:13.550Z,97265.63
2022-09-27T17:31:42.875Z,97259.44
2022-09-27T17:34:13.332Z,97257.78
2022-09-27T17:36:43.238Z,97259.09
2022-09-27T17:39:13.322Z,97251.03
2022-09-27T17:41:45.060Z,97252.28
2022-09-27T17:44:14.615Z,97258.91
2022-09-27T17:46:44.284Z,97252.66
2022-09-27T17:49:30.365Z,97261.16
2022-09-27T17:51:58.592Z,97258.50
2022-09-27T17:54:28.071Z,97261.44
2022-09-27T17:56:57.287Z,97266.09
2022-09-27T17:59:25.926Z,97261.94
2022-09-27T18:01:56.261Z,97265.34
2022-09-27T18:04:24.101Z,97269.25
2022-09-27T18:06:51.846Z,97271.22
2022-09-27T18:09:19.740Z,97267.84
2022-09-27T18:11:48.205Z,97289.81
2022-09-27T18:14:17.818Z,97276.91
2022-09-27T18:16:45.865Z,97279.94
2022-09-27T18:19:16.167Z,97277.66
2022-09-27T18:21:44.131Z,97287.25
2022-09-27T18:24:14.128Z,97289.50
2022-09-27T18:26:42.189Z,97287.94
2022-09-27T18:29:12.786Z,97297.13
2022-09-27T18:31:47.965Z,97290.38
2022-09-27T18:34:19.277Z,97285.44
2022-09-27T18:36:49.427Z,97286.72
2022-09-27T18:39:19.154Z,97285.50
2022-09-27T18:41:48.587Z,97286.44
2022-09-27T18:44:17.496Z,97295.88
2022-09-27T18:46:47.198Z,97283.25
2022-09-27T18:49:16.068Z,97287.41
2022-09-27T18:51:46.967Z,97284.25
2022-09-27T18:54:17.079Z,97288.84
2022-09-27T18:56:45.175Z,97291.63
2022-09-27T18:59:13.318Z,97298.69
2022-09-27T19:01:45.057Z,97308.38
2022-09-27T19:04:20.389Z,97307.81
2022-09-27T19:06:49.881Z,97311.78
2022-09-27T19:09:18.275Z,97306.16
2022-09-27T19:11:46.721Z,97309.47
2022-09-27T19:14:17.445Z,97309.28
2022-09-27T19:16:47.153Z,97312.75
2022-09-27T19:19:16.990Z,97316.31
2022-09-27T19:21:45.312Z,97321.41
2022-09-27T19:24:16.183Z,97314.72
2022-09-27T19:26:44.129Z,97319.13
2022-09-27T19:29:12.774Z,97322.38
2022-09-27T19:31:42.882Z,97323.38
2022-09-27T19:34:10.817Z,97328.28
2022-09-27T19:36:39.953Z,97330.81
2022-09-27T19:39:07.978Z,97321.75
2022-09-27T19:41:35.830Z,97317.91
2022-09-27T19:44:03.675Z,97313.00
2022-09-27T19:46:31.568Z,97319.19
2022-09-27T19:49:01.325Z,97323.84
2022-09-27T19:51:30.169Z,97330.28
2022-09-27T19:53:59.347Z,97316.50
2022-09-27T19:56:27.065Z,97311.19
2022-09-27T19:58:55.683Z,97314.56
2022-09-27T20:01:25.767Z,97309.19
2022-09-27T20:03:56.486Z,97311.19
2022-09-27T20:06:24.348Z,97301.97
2022-09-27T20:08:52.261Z,97301.38
2022-09-27T20:11:23.083Z,97296.56
2022-09-27T20:13:53.475Z,97292.00
2022-09-27T20:16:23.401Z,97291.97
2022-09-27T20:18:52.967Z,97290.00
2022-09-27T20:21:23.051Z,97284.72
2022-09-27T20:23:52.208Z,97290.91
2022-09-27T20:26:23.083Z,97288.09
2022-09-27T20:28:53.108Z,97290.78
2022-09-27T20:31:22.999Z,97284.09
2022-09-27T20:33:53.908Z,97281.00
2022-09-27T20:36:23.803Z,97285.69
2022-09-27T20:38:55.291Z,97280.50
2022-09-27T20:41:26.992Z,97277.13
2022-09-27T20:43:56.125Z,97268.81
2022-09-27T20:46:25.618Z,97275.34
2022-09-27T20:48:55.098Z,97271.84
2022-09-27T20:51:24.120Z,97266.41
2022-09-27T20:53:52.675Z,97266.63
2022-09-27T20:56:22.595Z,97270.41
2022-09-27T20:58:53.975Z,97268.84
2022-09-27T21:01:23.485Z,97264.50
2022-09-27T21:03:54.637Z,97265.44
2022-09-27T21:06:23.882Z,97264.31
2022-09-27T21:08:52.296Z,97273.41
2022-09-27T21:11:20.897Z,97271.75
2022-09-27T21:13:49.624Z,97257.22
2022-09-27T21:16:20.507Z,97269.47
2022-09-27T21:18:50.643Z,97263.06
2022-09-27T21:21:19.835Z,97262.56
2022-09-27T21:23:48.743Z,97250.66
2022-09-27T21:26:18.281Z,97254.06
2022-09-27T21:28:48.263Z,97259.19
2022-09-27T21:31:22.515Z,97247.03
2022-09-27T21:33:53.488Z,97239.28
2022-09-27T21:36:22.836Z,97249.28
2022-09-27T21:38:50.811Z,97240.50
2022-09-27T21:41:19.679Z,97239.00
2022-09-27T21:43:49.259Z,97251.19
2022-09-27T21:46:20.261Z,97239.50
2022-09-27T21:48:49.874Z,97246.13
2022-09-27T21:51:19.873Z,97242.56
2022-09-27T21:53:52.116Z,97236.38
2022-09-27T21:56:20.949Z,97237.81
2022-09-27T21:58:50.839Z,97226.94
2022-09-27T22:01:23.841Z,97239.06
2022-09-27T22:03:54.005Z,97227.28
2022-09-27T22:06:26.464Z,97223.19
2022-09-27T22:08:55.797Z,97225.94
2022-09-27T22:11:25.559Z,97220.94
2022-09-27T22:13:55.697Z,97207.91
2022-09-27T22:16:26.745Z,97205.94
2022-09-27T22:18:56.749Z,97202.75
2022-09-27T22:21:27.115Z,97197.63
2022-09-27T22:23:55.908Z,97194.59
2022-09-27T22:26:26.049Z,97189.72
2022-09-27T22:28:54.433Z,97185.78
2022-09-27T22:31:26.219Z,97180.81
2022-09-27T22:33:56.357Z,97177.78
2022-09-27T22:36:24.954Z,97176.22
2022-09-27T22:38:53.425Z,97166.09
2022-09-27T22:41:21.865Z,97161.25
2022-09-27T22:43:49.866Z,97162.84
2022-09-27T22:46:19.231Z,97153.38
2022-09-27T22:48:49.529Z,97148.63
2022-09-27T22:51:18.306Z,97132.94
2022-09-27T22:53:46.349Z,97135.03
2022-09-27T22:56:16.692Z,97134.81
2022-09-27T22:58:45.277Z,97122.72
2022-09-27T23:01:16.894Z,97136.84
2022-09-27T23:03:49.147Z,97128.25
2022-09-27T23:19:24.630Z,97101.59
2022-09-27T23:21:54.144Z,97086.94
2022-09-27T23:24:23.555Z,97086.38
2022-09-27T23:27:11.982Z,97076.53
2022-09-27T23:29:40.110Z,97075.63
2022-09-27T23:32:07.893Z,97068.25
2022-09-27T23:34:37.819Z,97072.41
2022-09-27T23:37:07.049Z,97063.13
2022-09-27T23:39:34.858Z,97063.34
2022-09-27T23:42:03.261Z,97059.72
2022-09-27T23:44:31.325Z,97046.91
2022-09-27T23:47:00.444Z,97043.25
2022-09-27T23:49:28.712Z,97045.25
2022-09-27T23:51:56.511Z,97028.03
2022-09-27T23:54:25.649Z,97033.38
2022-09-27T23:56:53.442Z,97023.81
2022-09-27T23:59:21.242Z,97024.28
